Time;durP1;ratioP1;P1;durP2;ratioP2;P2;SDS_P1;SDS_P2;PMS_P1;PMS_P2;Temp;Humidity;BMP_temperature;BMP_pressure;BME280_temperature;BME280_humidity;BME280_pressure;Samples;Min_cycle;Max_cycle;Signal;HPM_P1;HPM_P2
2023/05/19 00:01:21;;;;;;;9.30;4.80;;;;;;;9.15;72.67;101251.07;134247;1298;22390;-73
2023/05/19 00:04:46;;;;;;;7.60;4.70;;;;;;;9.13;72.83;101249.30;134220;1298;23105;-72
2023/05/19 00:07:53;;;;;;;7.10;4.80;;;;;;;9.11;72.97;101248.05;134126;1298;22364;-73
2023/05/19 00:11:00;;;;;;;9.40;5.20;;;;;;;9.09;73.25;101244.35;134235;1297;22440;-72
2023/05/19 00:14:43;;;;;;;11.60;5.60;;;;;;;9.08;73.24;101242.93;134137;1297;22387;-73
2023/05/19 00:21:51;;;;;;;10.30;5.10;;;;;;;9.05;73.37;101240.17;134212;1297;22548;-73
2023/05/19 00:25:19;;;;;;;13.10;5.60;;;;;;;9.03;73.57;101238.72;134215;1297;23190;-73
2023/05/19 00:28:50;;;;;;;8.40;5.50;;;;;;;9.01;73.65;101239.42;134246;1298;22235;-73
2023/05/19 00:39:12;;;;;;;10.50;5.40;;;;;;;8.97;73.95;101230.48;134109;1297;22360;-73
2023/05/19 00:42:55;;;;;;;10.00;5.30;;;;;;;8.94;74.10;101231.27;134192;1297;22437;-73
2023/05/19 00:46:34;;;;;;;;;;;;;;;;;;;;;
2023/05/19 00:50:04;;;;;;;11.70;5.40;;;;;;;8.92;74.32;101230.40;134065;1297;22437;-72
2023/05/19 00:53:49;;;;;;;;;;;;;;;;;;;;;
2023/05/19 00:58:24;;;;;;;8.60;4.80;;;;;;;8.83;74.58;101237.16;134211;1298;22243;-73
2023/05/19 01:02:46;;;;;;;8.30;5.20;;;;;;;8.73;74.92;101242.82;134216;1297;22432;-73
2023/05/19 01:06:14;;;;;;;7.60;4.90;;;;;;;8.64;74.98;101242.80;134114;1298;22446;-73
2023/05/19 01:09:27;;;;;;;7.90;5.30;;;;;;;8.57;75.34;101241.83;134118;1298;22441;-72
2023/05/19 01:13:04;;;;;;;10.40;5.10;;;;;;;8.53;75.43;101242.12;134248;1297;22699;-73
2023/05/19 01:16:29;;;;;;;9.80;5.70;;;;;;;8.50;75.56;101237.43;134220;1297;22486;-72
2023/05/19 01:19:55;;;;;;;8.70;4.70;;;;;;;8.50;75.76;101238.52;134222;1298;22247;-73
2023/05/19 01:24:00;;;;;;;10.00;5.10;;;;;;;8.47;75.85;101239.45;134250;1297;22357;-72
2023/05/19 01:27:51;;;;;;;;;;;;;;;;;;;;;
2023/05/19 01:31:27;;;;;;;;;;;;;;;;;;;;;
2023/05/19 01:34:48;;;;;;;10.30;4.90;;;;;;;8.50;76.11;101236.39;134221;1297;22356;-73
2023/05/19 01:38:19;;;;;;;10.80;5.60;;;;;;;8.51;76.37;101234.89;134117;1298;22177;-73
2023/05/19 01:41:56;;;;;;;10.00;5.80;;;;;;;8.52;76.55;101235.66;134267;1305;22506;-73
2023/05/19 01:45:13;;;;;;;11.70;5.70;;;;;;;8.53;76.67;101231.36;134048;1301;23047;-73
2023/05/19 01:52:12;;;;;;;;;;;;;;;;;;;;;
2023/05/19 01:55:29;;;;;;;8.70;6.20;;;;;;;8.54;77.22;101235.55;134150;1298;22183;-73
2023/05/19 01:59:02;;;;;;;9.40;7.00;;;;;;;8.56;77.45;101236.45;134246;1297;22443;-73
2023/05/19 02:02:46;;;;;;;11.20;7.20;;;;;;;8.57;77.50;101231.64;134267;1297;22473;-73
2023/05/19 02:06:54;;;;;;;10.70;7.10;;;;;;;8.57;77.50;101229.98;133997;1297;22972;-72
2023/05/19 02:10:20;;;;;;;15.50;6.90;;;;;;;8.60;77.76;101225.34;133239;1298;22232;-72
2023/05/19 02:13:49;;;;;;;10.90;7.10;;;;;;;8.62;77.68;101225.55;134139;1301;22486;-72
2023/05/19 02:17:20;;;;;;;;;;;;;;;;;;;;;
2023/05/19 02:21:11;;;;;;;;;;;;;;;;;;;;;
2023/05/19 02:25:23;;;;;;;10.90;6.80;;;;;;;8.70;77.85;101223.25;134009;1297;22952;-72
2023/05/19 02:28:40;;;;;;;11.60;7.40;;;;;;;8.66;77.98;101222.35;134199;1305;22152;-73
2023/05/19 02:31:47;;;;;;;11.20;6.80;;;;;;;8.66;78.03;101222.23;134255;1298;22362;-73
2023/05/19 02:35:21;;;;;;;11.90;7.40;;;;;;;8.66;78.11;101220.04;134105;1298;22380;-73
2023/05/19 02:38:41;;;;;;;12.00;7.30;;;;;;;8.69;78.31;101220.52;134227;1297;22166;-73
2023/05/19 02:46:29;;;;;;;10.50;6.60;;;;;;;8.67;78.29;101212.80;134106;1298;22576;-73
2023/05/19 02:50:07;;;;;;;12.50;7.00;;;;;;;8.62;78.38;101212.69;134012;1297;22884;-72
2023/05/19 02:57:35;;;;;;;12.90;6.80;;;;;;;8.70;78.67;101209.70;134058;1297;22437;-72
2023/05/19 03:01:17;;;;;;;10.90;6.60;;;;;;;8.71;78.57;101206.63;134190;1297;22447;-72
2023/05/19 03:04:18;;;;;;;13.20;6.60;;;;;;;8.64;78.72;101202.59;134139;1301;22353;-73
2023/05/19 03:11:15;;;;;;;;;;;;;;;;;;;;;
2023/05/19 03:15:03;;;;;;;;;;;;;;;;;;;;;
2023/05/19 03:18:29;;;;;;;10.70;7.60;;;;;;;8.75;79.06;101201.20;134286;1297;22387;-72
2023/05/19 03:21:56;;;;;;;11.70;6.40;;;;;;;8.72;79.13;101202.05;134268;1297;22450;-73
2023/05/19 03:25:01;;;;;;;8.60;6.40;;;;;;;8.71;79.37;101201.27;134233;1297;22224;-72
2023/05/19 03:28:25;;;;;;;9.60;6.50;;;;;;;8.66;79.42;101200.02;134157;1299;22174;-73
2023/05/19 03:31:50;;;;;;;13.20;6.90;;;;;;;8.57;79.87;101201.42;134147;1291;22442;-73
2023/05/19 03:35:18;;;;;;;12.30;6.90;;;;;;;8.51;80.21;101208.98;134267;1297;22642;-72
2023/05/19 03:38:40;;;;;;;;;;;;;;;;;;;;;
2023/05/19 03:42:18;;;;;;;;;;;;;;;;;;;;;
2023/05/19 03:45:50;;;;;;;11.00;6.70;;;;;;;8.48;80.92;101213.65;134192;1298;22412;-72
2023/05/19 03:50:12;;;;;;;;;;;;;;;;;;;;;
2023/05/19 03:53:29;;;;;;;10.70;6.30;;;;;;;8.65;80.95;101216.63;134144;1298;22168;-73
2023/05/19 03:56:49;;;;;;;9.10;6.10;;;;;;;8.74;80.87;101218.73;134232;1297;22244;-72
2023/05/19 03:59:53;;;;;;;9.10;6.20;;;;;;;8.83;80.92;101217.09;134192;1297;22406;-72
2023/05/19 04:03:08;;;;;;;12.60;6.20;;;;;;;8.87;80.59;101218.69;134191;1297;22293;-72
2023/05/19 04:06:35;;;;;;;6.80;5.60;;;;;;;8.92;80.62;101215.22;134158;1298;22199;-72
2023/05/19 04:09:42;;;;;;;9.00;6.00;;;;;;;8.98;80.50;101216.30;134184;1298;22172;-72
2023/05/19 04:12:53;;;;;;;;;;;;;;;;;;;;;
2023/05/19 04:16:01;;;;;;;11.40;6.20;;;;;;;9.14;80.36;101214.65;134153;1298;22157;-72
2023/05/19 04:19:11;;;;;;;10.00;5.80;;;;;;;9.18;80.41;101215.86;133962;1298;23129;-73
2023/05/19 04:22:15;;;;;;;9.20;5.60;;;;;;;9.24;80.31;101217.66;134260;1297;22345;-72
2023/05/19 04:25:24;;;;;;;11.30;6.40;;;;;;;9.25;80.03;101219.69;134149;1298;22382;-72
2023/05/19 04:29:09;;;;;;;11.00;5.20;;;;;;;9.25;80.00;101220.03;134118;1297;22384;-73
2023/05/19 04:32:16;;;;;;;8.90;5.40;;;;;;;9.27;80.09;101217.28;134091;1298;22338;-72
2023/05/19 04:35:25;;;;;;;13.50;5.30;;;;;;;9.27;79.88;101220.22;134001;1297;22378;-72
2023/05/19 04:38:29;;;;;;;7.90;5.00;;;;;;;9.29;79.96;101219.74;134328;1297;22967;-70
2023/05/19 04:42:01;;;;;;;9.90;5.50;;;;;;;9.30;80.12;101216.25;134146;1297;22468;-74
2023/05/19 04:45:29;;;;;;;8.10;5.10;;;;;;;9.28;80.12;101221.54;134159;1297;22205;-72
2023/05/19 04:48:35;;;;;;;7.70;5.10;;;;;;;9.32;80.48;101220.52;134124;1291;22465;-76
2023/05/19 04:52:32;;;;;;;;;;;;;;;;;;;;;
2023/05/19 04:56:20;;;;;;;;;;;;;;;;;;;;;
2023/05/19 05:00:13;;;;;;;;;;;;;;;;;;;;;
2023/05/19 05:04:04;;;;;;;;;;;;;;;;;;;;;
2023/05/19 05:07:54;;;;;;;7.70;5.50;;;;;;;9.50;80.61;101212.26;134125;1298;22454;-73
2023/05/19 05:11:45;;;;;;;10.00;5.80;;;;;;;9.53;80.56;101218.39;134150;1297;22714;-73
2023/05/19 05:15:10;;;;;;;12.10;6.40;;;;;;;9.63;80.88;101218.00;134136;1298;23152;-73
2023/05/19 05:18:13;;;;;;;10.30;7.10;;;;;;;9.67;80.75;101218.05;134035;1297;22370;-73
2023/05/19 05:21:56;;;;;;;;;;;;;;;;;;;;;
2023/05/19 05:25:04;;;;;;;10.10;6.20;;;;;;;9.80;80.59;101227.70;134129;1297;22170;-74
2023/05/19 05:28:25;;;;;;;10.20;5.40;;;;;;;9.83;80.52;101225.95;134180;1298;22447;-73
2023/05/19 05:31:32;;;;;;;8.70;5.50;;;;;;;9.84;80.23;101230.45;134087;1298;22389;-72
2023/05/19 05:34:39;;;;;;;9.30;6.00;;;;;;;9.82;80.35;101230.44;134178;1290;22494;-73
2023/05/19 05:38:14;;;;;;;12.70;5.50;;;;;;;9.79;80.39;101230.03;134053;1298;22421;-73
2023/05/19 05:42:01;;;;;;;11.90;5.20;;;;;;;9.76;80.19;101232.79;134169;1298;22374;-74
2023/05/19 05:45:17;;;;;;;10.00;6.70;;;;;;;9.75;80.30;101232.04;134085;1297;23125;-73
2023/05/19 05:48:44;;;;;;;10.20;6.10;;;;;;;9.74;80.57;101234.34;133824;1298;22880;-74
2023/05/19 05:52:16;;;;;;;8.60;5.40;;;;;;;9.79;80.73;101238.85;134199;1297;22422;-73
2023/05/19 05:55:41;;;;;;;12.60;5.50;;;;;;;9.82;80.53;101235.59;134103;1297;22374;-73
2023/05/19 05:58:58;;;;;;;10.40;5.90;;;;;;;9.84;80.66;101239.17;134208;1297;23983;-73
2023/05/19 06:02:01;;;;;;;10.20;6.30;;;;;;;9.83;80.55;101234.09;134217;1297;22404;-73
2023/05/19 06:05:05;;;;;;;12.70;7.40;;;;;;;9.85;80.62;101243.29;133950;1297;22350;-74
2023/05/19 06:17:00;;;;;;;9.90;6.10;;;;;;;10.00;80.81;101240.77;134187;1298;22892;-73
2023/05/19 06:20:21;;;;;;;8.70;6.20;;;;;;;10.03;80.63;101238.89;134074;1298;22519;-73
2023/05/19 06:23:25;;;;;;;10.80;5.40;;;;;;;10.08;80.58;101244.77;134255;1297;22435;-74
2023/05/19 06:27:07;;;;;;;6.90;5.60;;;;;;;10.11;80.48;101249.71;134252;1297;22418;-73
2023/05/19 06:31:07;;;;;;;;;;;;;;;;;;;;;
2023/05/19 06:35:08;;;;;;;;;;;;;;;;;;;;;
2023/05/19 06:38:16;;;;;;;11.00;5.70;;;;;;;10.17;80.33;101255.70;134119;1298;22956;-74
2023/05/19 06:41:58;;;;;;;10.50;6.00;;;;;;;10.19;80.32;101256.75;134090;1298;22400;-73
2023/05/19 06:50:14;;;;;;;;;;;;;;;;;;;;;
2023/05/19 06:53:55;;;;;;;6.50;4.20;;;;;;;10.08;80.11;101254.20;133892;1297;22443;-73
2023/05/19 06:57:05;;;;;;;7.20;4.10;;;;;;;10.05;79.96;101256.55;134235;1297;23031;-73
2023/05/19 07:00:38;;;;;;;7.40;4.90;;;;;;;10.06;80.14;101257.90;134228;1297;22334;-73
2023/05/19 07:04:06;;;;;;;6.20;3.70;;;;;;;10.10;80.20;101258.25;134112;1298;22417;-73
2023/05/19 07:07:42;;;;;;;4.90;3.60;;;;;;;10.14;79.98;101260.36;134238;1291;22269;-73
2023/05/19 07:11:18;;;;;;;;;;;;;;;;;;;;;
2023/05/19 07:14:45;;;;;;;7.20;3.60;;;;;;;10.14;79.60;101262.48;134241;1298;22365;-73
2023/05/19 07:21:46;;;;;;;5.00;3.30;;;;;;;10.12;79.65;101264.98;134235;1298;22568;-73
2023/05/19 07:25:04;;;;;;;6.50;3.30;;;;;;;10.14;79.71;101261.64;134094;1301;23291;-73
2023/05/19 07:28:21;;;;;;;7.30;4.10;;;;;;;10.19;79.58;101262.27;134241;1298;25300;-73
2023/05/19 07:31:33;;;;;;;8.50;4.00;;;;;;;10.24;79.32;101259.63;134278;1297;22378;-73
2023/05/19 07:34:44;;;;;;;7.30;4.20;;;;;;;10.24;79.31;101263.55;134225;1298;23246;-73
2023/05/19 07:38:01;;;;;;;6.20;4.00;;;;;;;10.25;79.33;101262.89;134259;1297;22589;-73
2023/05/19 07:41:08;;;;;;;6.90;4.40;;;;;;;10.30;79.55;101262.90;134252;1297;23041;-73
2023/05/19 07:44:11;;;;;;;8.40;4.30;;;;;;;10.40;79.77;101267.11;134193;1298;22435;-72
2023/05/19 07:47:12;;;;;;;6.50;4.70;;;;;;;10.45;79.61;101264.70;134187;1297;22358;-73
2023/05/19 07:50:57;;;;;;;5.80;4.90;;;;;;;10.51;79.72;101266.11;134235;1297;23113;-72
2023/05/19 07:54:05;;;;;;;8.30;5.30;;;;;;;10.51;79.46;101266.25;131679;1298;3211973;-73
2023/05/19 07:57:31;;;;;;;7.90;5.30;;;;;;;10.57;79.72;101262.60;134232;1297;22445;-73
2023/05/19 08:01:00;;;;;;;;;;;;;;;;;;;;;
2023/05/19 08:04:52;;;;;;;;;;;;;;;;;;;;;
2023/05/19 08:07:59;;;;;;;10.50;5.10;;;;;;;10.79;79.88;101265.52;134250;1298;22435;-73
2023/05/19 08:11:05;;;;;;;17.90;6.20;;;;;;;10.76;79.80;101264.86;133908;1297;22811;-73
2023/05/19 08:14:33;;;;;;;11.80;6.00;;;;;;;10.71;79.85;101265.67;134202;1297;22359;-73
2023/05/19 08:18:00;;;;;;;11.80;5.60;;;;;;;10.66;79.95;101263.18;134180;1298;22366;-73
2023/05/19 08:21:15;;;;;;;9.10;5.80;;;;;;;10.69;80.20;101263.55;134179;1297;23171;-73
2023/05/19 08:25:08;;;;;;;;;;;;;;;;;;;;;
2023/05/19 08:32:49;;;;;;;;;;;;;;;;;;;;;
2023/05/19 08:36:44;;;;;;;12.70;5.10;;;;;;;10.91;79.68;101254.35;134212;1294;23220;-73
2023/05/19 08:44:30;;;;;;;8.60;5.50;;;;;;;11.11;79.35;101253.40;134024;1297;22419;-72
2023/05/19 08:48:12;;;;;;;;;;;;;;;;;;;;;
2023/05/19 08:51:48;;;;;;;7.00;5.00;;;;;;;11.29;78.65;101247.77;134100;1301;22349;-73
2023/05/19 08:55:59;;;;;;;7.50;4.40;;;;;;;11.36;77.97;101251.88;134227;1297;22514;-73
2023/05/19 08:59:01;;;;;;;;;;;;;;;;;;;;;
2023/05/19 09:06:55;;;;;;;6.70;4.40;;;;;;;11.43;77.34;101247.88;134149;1298;22265;-74
2023/05/19 09:10:12;;;;;;;9.70;5.10;;;;;;;11.46;77.46;101245.98;134193;1298;22430;-74
2023/05/19 09:14:13;;;;;;;;;;;;;;;;;;;;;
2023/05/19 09:17:32;;;;;;;10.50;4.80;;;;;;;11.58;77.68;101235.78;134106;1297;22445;-73
2023/05/19 09:21:01;;;;;;;7.40;4.70;;;;;;;11.60;76.94;101241.45;134209;1301;22537;-74
2023/05/19 09:25:31;;;;;;;10.30;5.20;;;;;;;11.58;76.80;101238.31;134182;1304;23174;-74
2023/05/19 09:29:19;;;;;;;11.90;5.60;;;;;;;11.63;76.93;101239.60;134110;1298;22419;-73
2023/05/19 09:33:00;;;;;;;;;;;;;;;;;;;;;
2023/05/19 09:36:44;;;;;;;9.60;4.60;;;;;;;11.75;76.46;101239.21;133966;1297;23031;-74
2023/05/19 09:40:41;;;;;;;9.70;4.80;;;;;;;11.76;76.20;101238.23;134215;1298;22436;-76
2023/05/19 09:44:28;;;;;;;;;;;;;;;;;;;;;
2023/05/19 09:47:44;;;;;;;7.10;4.40;;;;;;;11.75;76.15;101235.97;134088;1298;22382;-74
2023/05/19 09:51:05;;;;;;;7.40;4.30;;;;;;;11.83;76.09;101233.27;134107;1298;23095;-74
2023/05/19 09:54:50;;;;;;;13.20;4.70;;;;;;;11.95;75.91;101229.39;134086;1304;22636;-75
2023/05/19 09:58:40;;;;;;;;;;;;;;;;;;;;;
2023/05/19 10:02:37;;;;;;;8.20;4.00;;;;;;;11.98;74.98;101221.61;133976;1298;24333;-74
2023/05/19 10:07:23;;;;;;;8.80;4.50;;;;;;;12.02;75.69;101217.66;134171;1298;23194;-74
2023/05/19 10:19:30;;;;;;;10.40;4.80;;;;;;;12.25;74.58;101201.08;133958;1298;22427;-74
2023/05/19 10:24:06;;;;;;;7.00;4.50;;;;;;;12.15;74.20;101199.02;134202;1302;22475;-75
2023/05/19 10:27:25;;;;;;;5.50;4.10;;;;;;;12.07;74.51;101202.10;133929;1298;22286;-74
2023/05/19 10:30:39;;;;;;;7.20;4.70;;;;;;;12.02;74.69;101205.20;134100;1298;23196;-74
2023/05/19 10:34:33;;;;;;;6.00;4.40;;;;;;;12.04;74.80;101209.13;134106;1298;22445;-77
2023/05/19 10:38:30;;;;;;;;;;;;;;;;;;;;;
2023/05/19 10:42:30;;;;;;;7.00;4.70;;;;;;;12.08;74.85;101201.44;134167;1305;23231;-74
2023/05/19 10:46:13;;;;;;;8.30;4.40;;;;;;;12.08;74.96;101200.04;134084;1302;22247;-74
2023/05/19 10:54:25;;;;;;;8.10;4.80;;;;;;;11.91;75.00;101205.08;134190;1297;22466;-73
2023/05/19 10:58:02;;;;;;;;;;;;;;;;;;;;;
2023/05/19 11:02:02;;;;;;;10.00;7.10;;;;;;;11.79;75.21;101210.67;134240;1298;22433;-74
2023/05/19 11:05:51;;;;;;;10.10;6.80;;;;;;;11.73;75.33;101209.42;134187;1302;22299;-74
2023/05/19 11:09:11;;;;;;;8.10;5.90;;;;;;;11.73;75.69;101210.14;133907;1299;23313;-74
2023/05/19 11:16:02;;;;;;;;;;;;;;;;;;;;;
2023/05/19 11:19:58;;;;;;;9.10;6.50;;;;;;;11.66;75.96;101210.03;134230;1295;22356;-74
2023/05/19 11:23:25;;;;;;;9.00;6.80;;;;;;;11.74;76.19;101205.73;134233;1298;22498;-73
2023/05/19 11:27:22;;;;;;;10.50;6.40;;;;;;;11.84;76.30;101205.49;134079;1305;22235;-73
2023/05/19 11:30:50;;;;;;;;;;;;;;;;;;;;;
2023/05/19 11:34:15;;;;;;;8.30;6.60;;;;;;;11.83;75.92;101202.92;134224;1298;22387;-73
2023/05/19 11:37:24;;;;;;;10.40;6.60;;;;;;;11.81;75.97;101206.71;134245;1297;22361;-73
2023/05/19 11:40:33;;;;;;;11.10;7.60;;;;;;;11.78;76.06;101205.20;134223;1304;22240;-73
2023/05/19 11:43:37;;;;;;;10.50;8.50;;;;;;;11.78;76.23;101203.42;134251;1303;22232;-74
2023/05/19 11:46:46;;;;;;;17.20;8.50;;;;;;;11.78;76.55;101204.92;134252;1292;22189;-73
2023/05/19 11:50:36;;;;;;;;;;;;;;;;;;;;;
2023/05/19 11:54:19;;;;;;;13.70;9.10;;;;;;;11.88;76.67;101206.53;134189;1301;22579;-73
2023/05/19 11:58:13;;;;;;;;;;;;;;;;;;;;;
2023/05/19 12:02:17;;;;;;;;;;;;;;;;;;;;;
2023/05/19 12:06:42;;;;;;;15.00;8.50;;;;;;;11.78;76.75;101202.95;134063;1305;22188;-74
2023/05/19 12:10:56;;;;;;;;;;;;;;;;;;;;;
2023/05/19 12:14:20;;;;;;;14.60;10.20;;;;;;;11.85;76.97;101205.03;134065;1305;23257;-74
2023/05/19 12:18:28;;;;;;;;;;;;;;;;;;;;;
2023/05/19 12:22:03;;;;;;;13.20;11.10;;;;;;;12.06;76.97;101201.42;134217;1303;22400;-73
2023/05/19 12:29:30;;;;;;;15.80;10.70;;;;;;;12.06;76.80;101200.39;134134;1298;23182;-73
2023/05/19 12:32:35;;;;;;;14.30;11.30;;;;;;;12.04;76.49;101200.23;134235;1297;22453;-74
2023/05/19 12:36:19;;;;;;;17.00;12.60;;;;;;;12.01;76.78;101201.83;134244;1298;22899;-75
2023/05/19 12:39:52;;;;;;;;;;;;;;;;;;;;;
2023/05/19 12:43:23;;;;;;;17.60;12.20;;;;;;;12.07;76.71;101202.27;133899;1298;22381;-74
2023/05/19 12:47:00;;;;;;;;;;;;;;;;;;;;;
2023/05/19 12:50:51;;;;;;;22.20;14.00;;;;;;;12.26;76.65;101197.33;134020;1298;22391;-73
2023/05/19 12:54:20;;;;;;;22.90;15.70;;;;;;;12.34;76.62;101196.91;134116;1304;22504;-74
2023/05/19 12:58:13;;;;;;;23.60;15.70;;;;;;;12.37;76.43;101197.77;134236;1305;22498;-74
2023/05/19 13:02:33;;;;;;;22.60;16.00;;;;;;;12.34;76.22;101197.80;134187;1298;22380;-73
2023/05/19 13:06:23;;;;;;;;;;;;;;;;;;;;;
2023/05/19 13:13:54;;;;;;;17.90;13.50;;;;;;;12.24;76.50;101189.82;133910;1298;23137;-73
2023/05/19 13:17:24;;;;;;;;;;;;;;;;;;;;;
2023/05/19 13:21:31;;;;;;;;;;;;;;;;;;;;;
2023/05/19 13:24:57;;;;;;;;;;;;;;;;;;;;;
2023/05/19 13:28:57;;;;;;;21.50;14.80;;;;;;;12.00;76.79;101195.30;134232;1298;22372;-73
2023/05/19 13:32:59;;;;;;;21.70;15.10;;;;;;;12.06;76.91;101194.20;134199;1298;22505;-73
2023/05/19 13:36:47;;;;;;;;;;;;;;;;;;;;;
2023/05/19 13:40:34;;;;;;;;;;;;;;;;;;;;;
2023/05/19 13:44:58;;;;;;;21.90;15.10;;;;;;;12.01;76.82;101193.05;134121;1298;22158;-74
2023/05/19 13:48:25;;;;;;;23.80;16.00;;;;;;;12.03;76.85;101189.48;133976;1297;22534;-73
2023/05/19 13:51:55;;;;;;;20.60;16.00;;;;;;;12.06;76.76;101185.27;134046;1298;23159;-74
2023/05/19 13:55:28;;;;;;;;;;;;;;;12.12;76.97;101184.96;134131;1298;23323;-74
2023/05/19 13:59:40;;;;;;;;;;;;;;;;;;;;;
2023/05/19 14:03:23;;;;;;;23.30;16.50;;;;;;;12.25;76.80;101184.34;134113;1297;22224;-74
2023/05/19 14:06:38;;;;;;;23.40;16.00;;;;;;;12.27;76.72;101186.61;134235;1282;22451;-74
2023/05/19 14:10:16;;;;;;;;;;;;;;;;;;;;;
2023/05/19 14:14:19;;;;;;;24.30;18.50;;;;;;;12.35;76.65;101184.47;134234;1298;22806;-74
2023/05/19 14:21:56;;;;;;;26.00;18.10;;;;;;;12.46;76.72;101186.34;133973;1297;22410;-74
2023/05/19 14:25:48;;;;;;;;;;;;;;;;;;;;;
2023/05/19 14:30:06;;;;;;;36.60;23.30;;;;;;;12.55;76.26;101187.02;134164;1298;22448;-74
2023/05/19 14:34:28;;;;;;;21.40;15.60;;;;;;;12.56;76.44;101183.06;134028;1304;22430;-73
2023/05/19 14:38:29;;;;;;;21.40;16.20;;;;;;;12.58;76.31;101183.61;134134;1297;22460;-74
2023/05/19 14:41:58;;;;;;;26.90;18.00;;;;;;;12.58;76.27;101179.14;133908;1297;22159;-74
2023/05/19 14:46:11;;;;;;;24.10;16.30;;;;;;;12.58;76.22;101178.42;134226;1298;22343;-73
2023/05/19 14:54:07;;;;;;;;;;;;;;;;;;;;;
2023/05/19 14:57:33;;;;;;;39.60;25.10;;;;;;;12.66;76.08;101180.80;133457;1301;22406;-73
2023/05/19 15:01:07;;;;;;;22.60;15.10;;;;;;;12.69;75.93;101178.03;133492;1302;22480;-74
2023/05/19 15:13:25;;;;;;;25.80;17.30;;;;;;;12.71;75.68;101175.63;133589;1300;22163;-73
2023/05/19 15:17:05;;;;;;;;;;;;;;;;;;;;;
2023/05/19 15:21:25;;;;;;;20.10;16.10;;;;;;;12.78;75.71;101176.54;133681;1298;25334;-73
2023/05/19 15:24:15;;;;;;;22.90;17.40;;;;;;;12.80;75.75;101181.72;134090;1297;22388;-74
2023/05/19 15:28:35;;;;;;;22.60;17.00;;;;;;;12.83;75.81;101178.35;134239;1297;23284;-74
2023/05/19 15:32:44;;;;;;;25.60;18.00;;;;;;;12.84;75.81;101176.69;134051;1297;22429;-74
2023/05/19 15:36:27;;;;;;;;;;;;;;;;;;;;;
2023/05/19 15:40:10;;;;;;;20.50;15.50;;;;;;;12.89;75.73;101169.62;134064;1298;22145;-74
2023/05/19 15:44:12;;;;;;;22.90;15.50;;;;;;;12.91;75.81;101167.55;134038;1300;23378;-74
2023/05/19 15:48:03;;;;;;;;;;;;;;;;;;;;;
2023/05/19 15:51:55;;;;;;;;;;;;;;;;;;;;;
2023/05/19 15:59:46;;;;;;;20.90;15.30;;;;;;;12.90;75.36;101157.19;134030;1298;22153;-74
2023/05/19 16:03:32;;;;;;;24.90;16.50;;;;;;;12.88;75.37;101157.66;134254;1298;22466;-73
2023/05/19 16:07:07;;;;;;;20.50;14.50;;;;;;;12.83;75.23;101161.13;134221;1297;22380;-74
2023/05/19 16:10:19;;;;;;;20.00;15.60;;;;;;;12.81;75.34;101158.32;134249;1298;22186;-74
2023/05/19 16:14:32;;;;;;;47.50;26.00;;;;;;;12.84;75.74;101160.71;134143;1297;22390;-74
2023/05/19 16:21:46;;;;;;;20.40;16.20;;;;;;;12.83;75.61;101159.53;134243;1297;23204;-73
2023/05/19 16:26:12;;;;;;;37.90;22.30;;;;;;;12.78;75.56;101159.11;134239;1297;22549;-74
2023/05/19 16:29:39;;;;;;;;;;;;;;;;;;;;;
2023/05/19 16:33:16;;;;;;;21.50;15.40;;;;;;;12.66;75.89;101158.04;134211;1298;22488;-73
2023/05/19 16:37:18;;;;;;;;;;;;;;;;;;;;;
2023/05/19 16:40:48;;;;;;;19.20;14.50;;;;;;;12.61;76.06;101158.20;133945;1297;22987;-72
2023/05/19 16:44:01;;;;;;;25.50;16.20;;;;;;;12.60;76.14;101157.63;134239;1295;22367;-73
2023/05/19 16:48:00;;;;;;;20.60;14.20;;;;;;;12.60;76.28;101159.27;134221;1297;22439;-73
2023/05/19 16:51:24;;;;;;;24.90;14.60;;;;;;;12.55;76.33;101153.98;134205;1297;23130;-73
2023/05/19 16:58:58;;;;;;;22.00;15.90;;;;;;;12.51;76.71;101153.40;134028;1297;22516;-73
2023/05/19 17:01:59;;;;;;;22.20;15.80;;;;;;;12.49;76.75;101150.75;134228;1298;22381;-72
2023/05/19 17:05:34;;;;;;;;;;;;;;;;;;;;;
2023/05/19 17:09:01;;;;;;;16.20;13.90;;;;;;;12.42;76.97;101154.77;134051;1298;23077;-74
2023/05/19 17:12:10;;;;;;;18.30;14.20;;;;;;;12.40;77.19;101153.61;134170;1297;22638;-74
2023/05/19 17:15:32;;;;;;;17.00;13.90;;;;;;;12.38;77.25;101154.83;134057;1297;22529;-74
2023/05/19 17:18:56;;;;;;;20.90;14.50;;;;;;;12.37;77.48;101152.83;134113;1298;22503;-74
2023/05/19 17:22:00;;;;;;;20.60;14.20;;;;;;;12.37;77.43;101151.08;134237;1297;22369;-74
2023/05/19 17:25:27;;;;;;;19.00;14.80;;;;;;;12.34;77.46;101153.27;133949;1301;22471;-73
2023/05/19 17:28:28;;;;;;;21.20;15.60;;;;;;;12.34;77.44;101153.33;133950;1297;22831;-74
2023/05/19 17:31:29;;;;;;;;;;;;;;;12.34;77.39;101154.02;133814;1302;22467;-73
2023/05/19 17:35:02;;;;;;;;;;;;;;;12.33;77.42;101154.64;134238;1297;22503;-73
2023/05/19 17:38:24;;;;;;;21.60;15.80;;;;;;;12.32;77.53;101159.55;134235;1297;22461;-72
2023/05/19 17:42:16;;;;;;;;;;;;;;;;;;;;;
2023/05/19 17:45:56;;;;;;;22.30;15.30;;;;;;;12.29;77.70;101163.50;134144;1297;22851;-72
2023/05/19 17:49:51;;;;;;;19.90;16.00;;;;;;;12.31;77.65;101172.43;134136;1298;22375;-72
2023/05/19 17:53:29;;;;;;;;;;;;;;;;;;;;;
2023/05/19 17:57:11;;;;;;;22.30;16.10;;;;;;;12.29;77.89;101175.27;134240;1297;22377;-72
2023/05/19 18:00:55;;;;;;;;;;;;;;;;;;;;;
2023/05/19 18:04:19;;;;;;;22.20;16.60;;;;;;;12.24;77.94;101167.03;133985;1297;22395;-72
2023/05/19 18:11:54;;;;;;;22.10;15.80;;;;;;;12.18;78.24;101166.76;134077;1301;22131;-72
2023/05/19 18:20:43;;;;;;;23.60;17.50;;;;;;;12.10;78.65;101163.64;134253;1297;22365;-72
2023/05/19 18:27:41;;;;;;;24.80;18.40;;;;;;;12.03;78.96;101163.67;134216;1297;22900;-72
2023/05/19 18:34:56;;;;;;;24.80;18.80;;;;;;;12.01;79.32;101163.85;134204;1297;23265;-72
2023/05/19 18:38:18;;;;;;;26.20;19.90;;;;;;;11.98;79.46;101164.33;134208;1298;22379;-72
2023/05/19 18:41:42;;;;;;;25.70;19.20;;;;;;;11.96;79.76;101167.20;134185;1297;22213;-72
2023/05/19 18:45:24;;;;;;;25.80;20.20;;;;;;;11.95;79.79;101168.91;134142;1297;23134;-72
2023/05/19 18:49:10;;;;;;;;;;;;;;;;;;;;;
2023/05/19 18:52:20;;;;;;;24.90;18.90;;;;;;;11.97;80.09;101169.40;134249;1297;22475;-73
2023/05/19 18:56:17;;;;;;;;;;;;;;;;;;;;;
2023/05/19 19:00:08;;;;;;;26.10;19.70;;;;;;;11.97;80.15;101181.98;134229;1297;22240;-72
2023/05/19 19:04:02;;;;;;;;;;;;;;;;;;;;;
2023/05/19 19:07:41;;;;;;;;;;;;;;;;;;;;;
2023/05/19 19:11:02;;;;;;;;;;;;;;;;;;;;;
2023/05/19 19:18:48;;;;;;;22.90;17.40;;;;;;;11.86;80.42;101196.69;133970;1297;22573;-72
2023/05/19 19:22:11;;;;;;;;;;;;;;;;;;;;;
2023/05/19 19:25:22;;;;;;;;;;;;;;;;;;;;;
2023/05/19 19:28:29;;;;;;;22.10;17.60;;;;;;;11.83;80.56;101199.40;134232;1298;22377;-72
2023/05/19 19:31:37;;;;;;;26.00;19.20;;;;;;;11.82;80.58;101204.23;134094;1298;22955;-72
2023/05/19 19:34:53;;;;;;;23.80;18.30;;;;;;;11.82;80.74;101203.80;134255;1297;23184;-72
2023/05/19 19:38:13;;;;;;;;;;;;;;;;;;;;;
2023/05/19 19:41:18;;;;;;;23.70;18.60;;;;;;;11.82;80.68;101203.06;134223;1297;22366;-72
2023/05/19 19:44:21;;;;;;;27.60;20.60;;;;;;;11.81;80.87;101201.33;134053;1298;23372;-72
2023/05/19 19:47:26;;;;;;;25.50;20.50;;;;;;;11.80;80.82;101205.45;134086;1298;23008;-72
2023/05/19 19:50:27;;;;;;;26.40;19.90;;;;;;;11.79;80.86;101206.56;133995;1297;22461;-72
2023/05/19 19:53:28;;;;;;;31.50;23.30;;;;;;;11.79;81.01;101207.96;134117;1297;205720;-72
2023/05/19 19:56:37;;;;;;;30.10;22.40;;;;;;;11.78;81.19;101210.55;133973;1301;22399;-72
2023/05/19 19:59:41;;;;;;;33.10;22.80;;;;;;;11.77;81.14;101212.05;134231;1297;22175;-72
2023/05/19 20:02:44;;;;;;;27.20;21.30;;;;;;;11.77;81.04;101210.80;134016;1296;22498;-73
2023/05/19 20:05:55;;;;;;;26.50;20.90;;;;;;;11.78;81.24;101213.07;134231;1297;22441;-72
2023/05/19 20:08:56;;;;;;;32.00;21.20;;;;;;;11.76;81.41;101211.48;134099;1298;23046;-72
2023/05/19 20:12:00;;;;;;;29.30;22.10;;;;;;;11.74;81.25;101211.48;133831;1300;22443;-73
2023/05/19 20:15:01;;;;;;;29.50;20.70;;;;;;;11.71;81.66;101215.67;134104;1297;22392;-72
2023/05/19 20:18:02;;;;;;;30.40;23.10;;;;;;;11.68;81.89;101212.94;134221;1297;22410;-72
2023/05/19 20:21:04;;;;;;;34.40;24.10;;;;;;;11.64;81.76;101205.81;134252;1297;22431;-72
2023/05/19 20:24:15;;;;;;;51.80;31.70;;;;;;;11.63;81.83;101209.86;133988;1298;22256;-71
2023/05/19 20:27:19;;;;;;;39.30;26.50;;;;;;;11.61;81.95;101208.64;134260;1298;22416;-71
2023/05/19 20:30:33;;;;;;;32.80;25.20;;;;;;;11.59;82.06;101214.27;134193;1298;22378;-72